createdAt,value
2018-11-27T07:02:33.144Z,2.80
2018-11-27T07:05:02.834Z,2.80
2018-11-27T07:07:32.905Z,3.07
2018-11-27T07:10:03.120Z,2.73
2018-11-27T07:12:33.181Z,2.77
2018-11-27T07:15:03.231Z,2.50
2018-11-27T07:17:33.555Z,2.43
2018-11-27T07:20:03.410Z,2.37
2018-11-27T07:22:33.633Z,2.20
2018-11-27T07:25:04.133Z,2.13
2018-11-27T07:27:35.040Z,2.20
2018-11-27T07:30:06.555Z,1.97
2018-11-27T07:32:35.733Z,2.70
2018-11-27T07:35:06.439Z,3.00
2018-11-27T07:37:36.695Z,3.50
2018-11-27T07:40:09.279Z,3.52
2018-11-27T07:42:39.107Z,3.97
2018-11-27T07:45:12.549Z,4.47
2018-11-27T07:47:42.356Z,3.50
2018-11-27T07:50:12.789Z,3.80
2018-11-27T07:52:42.250Z,3.33
2018-11-27T07:55:12.978Z,4.63
2018-11-27T07:57:42.516Z,4.60
2018-11-27T08:00:14.337Z,4.70
2018-11-27T08:02:45.188Z,5.07
2018-11-27T08:05:16.180Z,5.30
2018-11-27T08:07:48.132Z,5.47
2018-11-27T08:10:19.575Z,4.90
2018-11-27T08:12:49.594Z,5.17
2018-11-27T08:15:21.485Z,6.67
2018-11-27T08:17:51.072Z,6.70
2018-11-27T08:20:21.965Z,5.60
2018-11-27T08:22:51.462Z,6.50
2018-11-27T08:25:21.556Z,7.70
2018-11-27T08:27:51.646Z,7.17
2018-11-27T08:30:21.617Z,6.70
2018-11-27T08:32:52.532Z,7.27
2018-11-27T08:35:23.305Z,6.30
2018-11-27T08:37:53.958Z,6.67
2018-11-27T08:40:24.540Z,7.20
2018-11-27T08:42:54.253Z,7.70
2018-11-27T08:45:24.924Z,7.60
2018-11-27T08:47:55.536Z,8.53
2018-11-27T08:50:26.524Z,7.83
2018-11-27T08:52:57.671Z,7.37
2018-11-27T08:55:28.903Z,7.47
2018-11-27T08:57:58.783Z,8.10
2018-11-27T09:00:28.232Z,8.07
2018-11-27T09:02:58.025Z,8.10
2018-11-27T09:05:27.891Z,7.90
2018-11-27T09:07:57.368Z,8.80
2018-11-27T09:10:26.981Z,8.53
2018-11-27T09:12:56.864Z,8.73
2018-11-27T09:15:26.270Z,8.50
2018-11-27T09:18:02.194Z,8.97
2018-11-27T09:20:32.195Z,12.07
2018-11-27T09:23:02.139Z,10.50
2018-11-27T09:25:32.203Z,11.80
2018-11-27T09:28:02.085Z,11.47
2018-11-27T09:30:31.620Z,9.77
2018-11-27T09:33:01.158Z,10.87
2018-11-27T09:35:30.664Z,10.50
2018-11-27T09:38:00.540Z,11.20
2018-11-27T09:40:30.616Z,10.90
2018-11-27T09:43:00.427Z,10.57
2018-11-27T09:45:29.793Z,10.73
2018-11-27T09:48:02.319Z,11.57
2018-11-27T09:50:32.148Z,12.47
2018-11-27T09:53:02.276Z,13.33
2018-11-27T09:55:31.900Z,12.33
2018-11-27T09:58:01.813Z,11.90
2018-11-27T10:00:32.842Z,11.90
2018-11-27T10:03:04.896Z,11.73
2018-11-27T10:05:35.334Z,12.27
2018-11-27T10:08:05.842Z,11.43
2018-11-27T10:10:35.524Z,11.47
2018-11-27T10:13:05.229Z,12.07
2018-11-27T10:15:35.082Z,12.30
2018-11-27T10:18:05.104Z,14.03
2018-11-27T10:20:37.543Z,13.07
2018-11-27T10:23:09.713Z,16.07
2018-11-27T10:25:39.333Z,15.93
2018-11-27T10:28:09.480Z,17.03
2018-11-27T10:30:38.937Z,16.57
2018-11-27T10:33:10.876Z,16.33
2018-11-27T10:35:43.848Z,16.87
2018-11-27T10:38:13.616Z,18.07
2018-11-27T10:40:43.601Z,17.40
2018-11-27T10:43:19.459Z,17.67
2018-11-27T10:45:43.871Z,20.93
2018-11-27T10:48:13.651Z,20.10
2018-11-27T10:50:43.373Z,21.03
2018-11-27T10:53:13.487Z,19.57
2018-11-27T10:55:42.890Z,20.90
2018-11-27T10:58:12.370Z,20.70
2018-11-27T11:00:46.842Z,21.67
2018-11-27T11:03:21.023Z,22.73
2018-11-27T11:05:50.848Z,26.53
